Time;durP1;ratioP1;P1;durP2;ratioP2;P2;SDS_P1;SDS_P2;PMS_P1;PMS_P2;Temp;Humidity;BMP_temperature;BMP_pressure;BME280_temperature;BME280_humidity;BME280_pressure;Samples;Min_cycle;Max_cycle;Signal;HPM_P1;HPM_P2
2024/01/24 00:02:18;;;;;;;4.38;1.33;;;;;;;;;;6161182;23;20441;-78
2024/01/24 00:05:08;;;;;;;7.50;1.98;;;;;;;;;;6162143;23;20339;-78
2024/01/24 00:07:56;;;;;;;4.78;1.13;;;;;;;;;;6161685;23;20017;-78
2024/01/24 00:10:42;;;;;;;4.45;1.20;;;;;;;;;;6142787;23;20025;-78
2024/01/24 00:13:30;;;;;;;7.93;1.80;;;;;;;;;;6183467;23;20021;-78
2024/01/24 00:16:17;;;;;;;6.25;1.05;;;;;;;;;;6142477;23;20026;-78
2024/01/24 00:19:08;;;;;;;4.40;1.30;;;;;;;;;;6164733;23;20434;-78
2024/01/24 00:21:54;;;;;;;6.13;1.10;;;;;;;;;;6142412;23;20021;-78
2024/01/24 00:24:40;;;;;;;6.20;1.27;;;;;;;;;;6162870;23;20017;-78
2024/01/24 00:27:25;;;;;;;3.15;1.15;;;;;;;;;;6163356;23;20014;-78
2024/01/24 00:30:12;;;;;;;3.25;0.90;;;;;;;;;;6142080;23;20021;-78
2024/01/24 00:33:05;;;;;;;3.63;0.90;;;;;;;;;;6142863;23;20018;-78
2024/01/24 00:35:53;;;;;;;4.32;1.17;;;;;;;;;;6158972;23;20044;-78
2024/01/24 00:38:42;;;;;;;7.18;1.73;;;;;;;;;;6163262;23;20021;-78
2024/01/24 00:41:33;;;;;;;6.60;1.33;;;;;;;;;;6163070;23;20450;-78
2024/01/24 00:44:19;;;;;;;9.50;1.20;;;;;;;;;;6163160;23;20022;-78
2024/01/24 00:47:06;;;;;;;3.92;0.80;;;;;;;;;;6142361;23;20026;-78
2024/01/24 00:49:55;;;;;;;10.73;1.20;;;;;;;;;;6162928;23;20048;-78
2024/01/24 00:52:44;;;;;;;5.43;1.20;;;;;;;;;;6142607;23;20367;-78
2024/01/24 00:55:32;;;;;;;5.97;0.95;;;;;;;;;;6141894;23;20025;-78
2024/01/24 00:58:20;;;;;;;3.78;0.82;;;;;;;;;;6163108;23;20018;-78
2024/01/24 01:01:11;;;;;;;2.35;1.17;;;;;;;;;;6164128;23;20416;-78
2024/01/24 01:03:57;;;;;;;3.70;1.13;;;;;;;;;;6162851;23;20022;-78
2024/01/24 01:06:44;;;;;;;6.15;1.48;;;;;;;;;;6158945;23;20021;-78
2024/01/24 01:09:33;;;;;;;4.85;1.10;;;;;;;;;;6142844;23;20017;-78
2024/01/24 01:12:18;;;;;;;4.20;0.88;;;;;;;;;;6141736;23;20022;-78
2024/01/24 01:15:07;;;;;;;3.53;1.10;;;;;;;;;;6157270;23;20025;-78
2024/01/24 01:17:54;;;;;;;6.13;0.98;;;;;;;;;;6162910;23;20018;-78
2024/01/24 01:20:43;;;;;;;3.88;1.08;;;;;;;;;;6163074;23;20022;-78
2024/01/24 01:23:32;;;;;;;4.80;0.95;;;;;;;;;;6162082;23;20424;-78
2024/01/24 01:26:18;;;;;;;3.03;0.75;;;;;;;;;;6159483;23;20474;-78
2024/01/24 01:29:04;;;;;;;2.97;0.70;;;;;;;;;;6141898;23;20014;-78
2024/01/24 01:31:49;;;;;;;1.48;0.68;;;;;;;;;;6164043;23;20017;-78
2024/01/24 01:34:35;;;;;;;7.95;1.38;;;;;;;;;;6163872;23;20017;-78
2024/01/24 01:37:24;;;;;;;11.18;1.00;;;;;;;;;;6156046;23;20021;-78
2024/01/24 01:40:14;;;;;;;6.75;0.95;;;;;;;;;;6142017;23;20022;-78
2024/01/24 01:42:59;;;;;;;4.13;0.98;;;;;;;;;;6183526;23;20021;-78
2024/01/24 01:45:45;;;;;;;4.95;1.10;;;;;;;;;;6162288;23;20022;-78
2024/01/24 01:48:34;;;;;;;3.58;0.95;;;;;;;;;;6162791;23;20337;-78
2024/01/24 01:51:20;;;;;;;4.18;1.70;;;;;;;;;;6142121;23;20021;-78
2024/01/24 01:54:08;;;;;;;1.98;0.82;;;;;;;;;;6161813;23;20406;-78
2024/01/24 01:56:56;;;;;;;5.25;1.25;;;;;;;;;;6157833;23;20482;-78
2024/01/24 01:59:45;;;;;;;3.63;0.88;;;;;;;;;;6141811;23;20450;-78
2024/01/24 02:02:31;;;;;;;5.80;0.88;;;;;;;;;;6141751;23;20404;-78
2024/01/24 02:05:17;;;;;;;13.50;1.48;;;;;;;;;;6161483;23;20469;-78
2024/01/24 02:08:09;;;;;;;4.35;0.80;;;;;;;;;;6162675;23;20018;-79
2024/01/24 02:10:57;;;;;;;3.10;1.13;;;;;;;;;;6141781;23;20022;-79
2024/01/24 02:13:47;;;;;;;4.20;0.85;;;;;;;;;;6183122;23;20017;-79
2024/01/24 02:16:33;;;;;;;4.65;0.90;;;;;;;;;;6160473;23;20021;-79
2024/01/24 02:19:18;;;;;;;3.95;0.88;;;;;;;;;;6162414;23;20319;-78
2024/01/24 02:22:04;;;;;;;8.52;1.38;;;;;;;;;;6139327;23;20025;-78
2024/01/24 02:24:54;;;;;;;4.63;1.27;;;;;;;;;;6161089;23;20017;-79
2024/01/24 02:27:42;;;;;;;1.67;0.63;;;;;;;;;;6153843;23;20017;-78
2024/01/24 02:30:28;;;;;;;8.55;1.20;;;;;;;;;;6162432;23;20021;-78
2024/01/24 02:33:14;;;;;;;3.45;0.73;;;;;;;;;;6140006;23;20479;-78
2024/01/24 02:35:59;;;;;;;4.07;0.68;;;;;;;;;;6160300;23;20474;-78
2024/01/24 02:38:45;;;;;;;3.55;1.10;;;;;;;;;;6160961;23;20017;-78
2024/01/24 02:41:33;;;;;;;2.00;0.60;;;;;;;;;;6139629;23;20021;-78
2024/01/24 02:44:19;;;;;;;3.22;0.88;;;;;;;;;;6139399;23;20017;-78
2024/01/24 02:47:04;;;;;;;7.72;1.15;;;;;;;;;;6154762;23;20025;-78
2024/01/24 02:49:53;;;;;;;6.18;1.48;;;;;;;;;;6161220;23;20331;-78
2024/01/24 02:52:38;;;;;;;3.00;0.93;;;;;;;;;;6161304;23;20021;-78
2024/01/24 02:55:29;;;;;;;2.85;1.02;;;;;;;;;;6162245;23;20025;-78
2024/01/24 02:58:21;;;;;;;3.70;0.80;;;;;;;;;;6162375;23;20021;-78
2024/01/24 03:01:07;;;;;;;4.28;0.90;;;;;;;;;;6160928;23;20021;-78
2024/01/24 03:03:55;;;;;;;3.50;0.85;;;;;;;;;;6161600;23;20025;-79
2024/01/24 03:06:43;;;;;;;5.13;0.80;;;;;;;;;;6139559;23;20018;-78
2024/01/24 03:09:29;;;;;;;1.67;1.00;;;;;;;;;;6160757;23;20017;-78
2024/01/24 03:12:17;;;;;;;2.75;0.82;;;;;;;;;;6142406;23;20021;-74
2024/01/24 03:15:05;;;;;;;4.88;0.98;;;;;;;;;;6191735;23;20024;-75
2024/01/24 03:17:51;;;;;;;3.10;0.90;;;;;;;;;;6162182;23;20021;-75
2024/01/24 03:20:37;;;;;;;3.55;1.00;;;;;;;;;;6163527;23;20022;-75
2024/01/24 03:23:24;;;;;;;4.78;1.15;;;;;;;;;;6162685;23;20022;-75
2024/01/24 03:26:13;;;;;;;2.38;0.80;;;;;;;;;;6159606;23;20022;-76
2024/01/24 03:28:58;;;;;;;2.47;1.08;;;;;;;;;;6140995;23;20017;-76
2024/01/24 03:31:46;;;;;;;3.17;0.70;;;;;;;;;;6163189;23;20021;-76
2024/01/24 03:34:34;;;;;;;4.32;0.88;;;;;;;;;;6161889;23;20017;-76
2024/01/24 03:37:20;;;;;;;4.15;0.88;;;;;;;;;;6132309;23;20469;-76
2024/01/24 03:40:09;;;;;;;1.80;0.60;;;;;;;;;;6141170;23;20020;-76
2024/01/24 03:42:55;;;;;;;2.22;0.63;;;;;;;;;;6119072;23;20017;-76
2024/01/24 03:45:43;;;;;;;6.40;1.00;;;;;;;;;;6160739;23;20029;-76
2024/01/24 03:48:31;;;;;;;2.53;0.90;;;;;;;;;;6120426;23;20323;-76
2024/01/24 03:51:16;;;;;;;3.53;1.00;;;;;;;;;;6141823;23;20018;-76
2024/01/24 03:54:02;;;;;;;1.42;0.60;;;;;;;;;;6118260;23;20026;-76
2024/01/24 03:56:51;;;;;;;3.38;0.60;;;;;;;;;;6135853;23;20021;-76
2024/01/24 03:59:37;;;;;;;3.65;0.70;;;;;;;;;;6140362;23;20343;-76
2024/01/24 04:02:23;;;;;;;4.00;0.98;;;;;;;;;;6140505;23;20021;-76
2024/01/24 04:05:14;;;;;;;4.57;0.85;;;;;;;;;;6139432;23;20450;-76
2024/01/24 04:08:02;;;;;;;2.58;0.73;;;;;;;;;;6119027;23;20025;-76
2024/01/24 04:10:48;;;;;;;4.05;1.42;;;;;;;;;;6140914;23;20479;-76
2024/01/24 04:13:36;;;;;;;1.83;0.68;;;;;;;;;;6139242;23;20018;-76
2024/01/24 04:16:25;;;;;;;3.67;1.08;;;;;;;;;;6126851;23;20022;-76
2024/01/24 04:19:11;;;;;;;3.05;0.70;;;;;;;;;;6111256;23;20041;-76
2024/01/24 04:21:58;;;;;;;4.32;0.80;;;;;;;;;;6133943;23;20018;-76
2024/01/24 04:24:46;;;;;;;5.00;0.60;;;;;;;;;;6131809;23;20025;-76
2024/01/24 04:27:32;;;;;;;4.80;0.70;;;;;;;;;;6125196;23;20022;-76
2024/01/24 04:30:18;;;;;;;3.50;0.90;;;;;;;;;;6112800;23;20014;-75
2024/01/24 04:33:04;;;;;;;3.58;0.65;;;;;;;;;;6113102;23;20026;-75
2024/01/24 04:35:50;;;;;;;5.05;1.08;;;;;;;;;;6131838;23;20021;-75
2024/01/24 04:38:39;;;;;;;3.38;0.80;;;;;;;;;;6091238;23;20022;-76
2024/01/24 04:41:27;;;;;;;1.40;0.80;;;;;;;;;;6134667;23;20021;-76
2024/01/24 04:44:15;;;;;;;2.83;0.52;;;;;;;;;;6134499;23;20474;-76
2024/01/24 04:47:01;;;;;;;3.55;0.70;;;;;;;;;;6090308;23;20027;-76
2024/01/24 04:49:47;;;;;;;2.63;0.80;;;;;;;;;;6133760;23;20018;-76
2024/01/24 04:52:35;;;;;;;2.38;0.63;;;;;;;;;;6113033;23;20018;-76
2024/01/24 04:55:25;;;;;;;3.78;1.10;;;;;;;;;;6112127;23;20026;-76
2024/01/24 04:58:13;;;;;;;3.72;0.80;;;;;;;;;;6111416;23;20022;-76
2024/01/24 05:01:00;;;;;;;1.27;0.68;;;;;;;;;;6132725;23;20014;-76
2024/01/24 05:03:46;;;;;;;3.45;0.75;;;;;;;;;;6134234;23;20332;-76
2024/01/24 05:06:35;;;;;;;1.52;0.80;;;;;;;;;;6112108;23;20032;-76
2024/01/24 05:09:20;;;;;;;5.07;0.70;;;;;;;;;;6111292;23;20018;-76
2024/01/24 05:12:10;;;;;;;2.17;0.80;;;;;;;;;;6112155;23;20332;-76
2024/01/24 05:14:59;;;;;;;4.55;0.70;;;;;;;;;;6111850;23;20022;-76
2024/01/24 05:17:45;;;;;;;0.90;0.50;;;;;;;;;;6112982;23;20018;-76
2024/01/24 05:20:31;;;;;;;3.20;0.60;;;;;;;;;;6111888;23;20014;-75
2024/01/24 05:23:17;;;;;;;1.38;0.70;;;;;;;;;;6092584;23;20025;-76
2024/01/24 05:26:05;;;;;;;3.83;0.50;;;;;;;;;;6132522;23;20022;-76
2024/01/24 05:28:52;;;;;;;1.10;0.50;;;;;;;;;;6132657;23;20021;-75
2024/01/24 05:31:41;;;;;;;1.65;0.68;;;;;;;;;;6111153;23;20017;-75
2024/01/24 05:34:27;;;;;;;2.60;0.60;;;;;;;;;;6134805;23;20026;-75
2024/01/24 05:37:15;;;;;;;5.15;0.60;;;;;;;;;;6126922;23;20022;-76
2024/01/24 05:44:18;;;;;;;1.15;0.57;;;;;;;;;;6071394;23;20022;-77
2024/01/24 05:47:08;;;;;;;1.13;0.60;;;;;;;;;;6066740;23;20023;-77
2024/01/24 05:49:56;;;;;;;5.78;0.60;;;;;;;;;;6073491;23;20018;-77
2024/01/24 05:52:43;;;;;;;4.93;0.73;;;;;;;;;;6066971;23;20048;-77
2024/01/24 05:55:31;;;;;;;1.55;0.70;;;;;;;;;;6052562;23;20030;-77
2024/01/24 05:58:17;;;;;;;3.50;0.63;;;;;;;;;;6031669;23;20019;-77
2024/01/24 06:01:06;;;;;;;2.15;0.70;;;;;;;;;;6052485;23;20499;-77
2024/01/24 06:03:52;;;;;;;2.97;0.60;;;;;;;;;;6072678;23;20022;-77
2024/01/24 06:06:38;;;;;;;3.30;0.75;;;;;;;;;;6052725;23;20027;-77
2024/01/24 06:09:24;;;;;;;2.83;0.70;;;;;;;;;;6052122;23;20026;-77
2024/01/24 06:12:10;;;;;;;2.40;0.75;;;;;;;;;;6052873;23;20023;-77
2024/01/24 06:14:56;;;;;;;1.60;0.60;;;;;;;;;;6120098;23;20018;-77
2024/01/24 06:17:43;;;;;;;1.58;0.50;;;;;;;;;;6091785;23;20018;-77
2024/01/24 06:20:29;;;;;;;2.95;0.82;;;;;;;;;;6111944;23;20014;-77
2024/01/24 06:23:15;;;;;;;1.10;0.40;;;;;;;;;;6091481;23;20026;-77
2024/01/24 06:26:02;;;;;;;2.72;0.70;;;;;;;;;;6131734;23;20025;-77
2024/01/24 06:28:50;;;;;;;2.08;0.70;;;;;;;;;;6112233;23;20363;-77
2024/01/24 06:31:38;;;;;;;0.43;0.30;;;;;;;;;;6133195;23;20013;-77
2024/01/24 06:34:29;;;;;;;3.63;0.57;;;;;;;;;;6089760;23;20025;-76
2024/01/24 06:37:17;;;;;;;2.97;0.63;;;;;;;;;;6123558;23;20025;-76
2024/01/24 06:40:03;;;;;;;0.65;0.43;;;;;;;;;;6111864;23;20324;-76
2024/01/24 06:42:50;;;;;;;0.95;0.40;;;;;;;;;;6111939;23;20466;-76
2024/01/24 06:45:41;;;;;;;1.48;0.80;;;;;;;;;;6111211;23;20380;-76
2024/01/24 06:48:27;;;;;;;1.17;0.40;;;;;;;;;;6111634;23;20018;-76
2024/01/24 06:51:15;;;;;;;2.05;0.90;;;;;;;;;;6109767;23;20336;-76
2024/01/24 06:54:01;;;;;;;0.95;0.47;;;;;;;;;;6111238;23;20340;-76
2024/01/24 06:56:47;;;;;;;0.80;0.47;;;;;;;;;;6128513;23;20332;-76
2024/01/24 06:59:36;;;;;;;1.77;0.45;;;;;;;;;;6091250;23;20026;-76
2024/01/24 07:02:21;;;;;;;1.05;0.50;;;;;;;;;;6133861;23;20383;-76
2024/01/24 07:05:08;;;;;;;1.10;0.63;;;;;;;;;;6090872;23;20018;-76
2024/01/24 07:07:55;;;;;;;1.40;0.40;;;;;;;;;;6111801;23;20328;-76
2024/01/24 07:10:41;;;;;;;3.83;0.85;;;;;;;;;;6091004;23;20017;-76
2024/01/24 07:13:27;;;;;;;1.70;0.75;;;;;;;;;;6097668;23;20022;-76
2024/01/24 07:16:13;;;;;;;1.10;0.60;;;;;;;;;;6130107;23;20022;-76
2024/01/24 07:18:58;;;;;;;1.95;0.70;;;;;;;;;;6132469;23;20018;-76
2024/01/24 07:21:46;;;;;;;1.73;0.70;;;;;;;;;;6131730;23;20022;-77
2024/01/24 07:24:33;;;;;;;0.90;0.45;;;;;;;;;;6132988;23;20022;-77
2024/01/24 07:27:19;;;;;;;1.27;0.55;;;;;;;;;;6111366;23;20026;-77
2024/01/24 07:30:06;;;;;;;1.77;0.70;;;;;;;;;;6131955;23;20022;-77
2024/01/24 07:32:56;;;;;;;1.52;0.98;;;;;;;;;;6134163;23;20324;-77
2024/01/24 07:35:45;;;;;;;0.60;0.50;;;;;;;;;;6131513;23;20030;-77
2024/01/24 07:38:33;;;;;;;1.85;0.45;;;;;;;;;;6133546;23;20018;-77
2024/01/24 07:41:20;;;;;;;2.13;0.55;;;;;;;;;;6111221;23;20018;-77
2024/01/24 07:44:06;;;;;;;1.58;0.60;;;;;;;;;;6132872;23;20022;-77
2024/01/24 07:46:52;;;;;;;1.10;0.47;;;;;;;;;;6126718;23;20025;-77
2024/01/24 07:49:39;;;;;;;1.15;0.50;;;;;;;;;;6132210;23;20022;-77
2024/01/24 07:52:29;;;;;;;1.02;0.47;;;;;;;;;;6133164;23;20018;-77
2024/01/24 07:55:18;;;;;;;0.80;0.30;;;;;;;;;;6132597;23;20018;-77
2024/01/24 07:58:05;;;;;;;1.08;0.40;;;;;;;;;;6131416;23;20021;-77
2024/01/24 08:00:51;;;;;;;0.95;0.40;;;;;;;;;;6090481;23;20014;-77
2024/01/24 08:03:37;;;;;;;3.45;0.63;;;;;;;;;;6133801;23;20018;-77
2024/01/24 08:06:25;;;;;;;2.15;0.60;;;;;;;;;;6112750;23;20029;-76
2024/01/24 08:09:11;;;;;;;1.75;0.50;;;;;;;;;;6133380;23;20022;-76
2024/01/24 08:11:56;;;;;;;0.40;0.30;;;;;;;;;;6132800;23;20017;-76
2024/01/24 08:14:44;;;;;;;1.20;0.50;;;;;;;;;;6112697;23;20018;-76
2024/01/24 08:17:29;;;;;;;1.17;0.50;;;;;;;;;;6112753;23;20018;-76
2024/01/24 08:20:17;;;;;;;1.25;0.50;;;;;;;;;;6134945;23;20030;-76
2024/01/24 08:23:14;;;;;;;0.82;0.40;;;;;;;;;;6134546;23;20320;-76
2024/01/24 08:26:02;;;;;;;1.38;0.57;;;;;;;;;;6112842;23;20022;-76
2024/01/24 08:28:52;;;;;;;1.45;0.90;;;;;;;;;;6112715;23;20025;-76
2024/01/24 08:31:39;;;;;;;1.02;0.50;;;;;;;;;;6132928;23;20454;-77
2024/01/24 08:34:25;;;;;;;1.10;0.60;;;;;;;;;;6092211;23;20025;-77
2024/01/24 08:37:16;;;;;;;0.90;0.50;;;;;;;;;;6133574;23;20029;-77
2024/01/24 08:40:05;;;;;;;2.55;0.68;;;;;;;;;;6113248;23;20018;-77
2024/01/24 08:42:51;;;;;;;1.55;0.70;;;;;;;;;;6113094;23;20459;-77
2024/01/24 08:45:40;;;;;;;0.60;0.40;;;;;;;;;;6112996;23;20026;-76
2024/01/24 08:48:30;;;;;;;1.92;0.50;;;;;;;;;;6112632;23;20022;-77
2024/01/24 08:51:15;;;;;;;0.60;0.45;;;;;;;;;;6134339;23;20025;-76
2024/01/24 08:54:02;;;;;;;1.98;0.57;;;;;;;;;;6112659;23;20328;-77
2024/01/24 08:56:50;;;;;;;0.98;0.50;;;;;;;;;;6112716;23;20026;-77
2024/01/24 08:59:38;;;;;;;2.25;0.50;;;;;;;;;;6134777;23;20018;-77
2024/01/24 09:02:25;;;;;;;0.77;0.30;;;;;;;;;;6133325;23;20018;-77
2024/01/24 09:05:20;;;;;;;1.77;0.45;;;;;;;;;;6112611;23;20041;-77
2024/01/24 09:08:06;;;;;;;1.40;0.70;;;;;;;;;;6112738;23;20021;-77
2024/01/24 09:10:52;;;;;;;1.23;0.40;;;;;;;;;;6134585;23;20018;-77
2024/01/24 09:13:38;;;;;;;1.65;0.70;;;;;;;;;;6143475;23;20021;-78
2024/01/24 09:16:25;;;;;;;0.20;0.20;;;;;;;;;;6159343;23;20017;-78
2024/01/24 09:19:13;;;;;;;0.40;0.20;;;;;;;;;;6164533;23;20022;-78
2024/01/24 09:22:01;;;;;;;0.32;0.25;;;;;;;;;;6163282;23;20021;-78
2024/01/24 09:24:47;;;;;;;0.20;0.20;;;;;;;;;;6162867;23;20017;-78
2024/01/24 09:27:33;;;;;;;0.15;0.10;;;;;;;;;;6162872;23;20021;-78
2024/01/24 09:30:19;;;;;;;0.50;0.30;;;;;;;;;;6162982;23;20017;-78
2024/01/24 09:33:09;;;;;;;1.10;0.82;;;;;;;;;;6142442;23;20013;-78
2024/01/24 09:35:57;;;;;;;0.55;0.30;;;;;;;;;;6170417;23;20025;-80
2024/01/24 09:38:45;;;;;;;0.90;0.20;;;;;;;;;;6172358;23;20017;-80
2024/01/24 09:41:38;;;;;;;0.32;0.22;;;;;;;;;;6164148;23;20018;-78
2024/01/24 09:44:30;;;;;;;0.45;0.30;;;;;;;;;;6161752;23;20017;-78
2024/01/24 09:47:21;;;;;;;1.38;0.22;;;;;;;;;;6141572;23;20021;-78
2024/01/24 09:50:07;;;;;;;0.77;0.20;;;;;;;;;;6167936;23;20018;-78
2024/01/24 09:53:00;;;;;;;0.30;0.22;;;;;;;;;;6141926;23;20018;-78
2024/01/24 09:55:50;;;;;;;1.15;0.17;;;;;;;;;;6162332;23;20021;-77
2024/01/24 09:58:36;;;;;;;0.70;0.30;;;;;;;;;;6162151;23;20017;-77
2024/01/24 10:01:23;;;;;;;0.98;0.40;;;;;;;;;;6162060;23;20018;-78
2024/01/24 10:04:15;;;;;;;0.50;0.50;;;;;;;;;;6142133;23;20331;-78
2024/01/24 10:07:02;;;;;;;0.30;0.30;;;;;;;;;;6157375;23;20025;-78
2024/01/24 10:09:48;;;;;;;1.05;0.30;;;;;;;;;;6141675;23;20022;-78
2024/01/24 10:12:35;;;;;;;0.95;0.20;;;;;;;;;;6141789;23;20018;-78
2024/01/24 10:15:25;;;;;;;0.38;0.38;;;;;;;;;;6162784;23;20017;-78
2024/01/24 10:18:13;;;;;;;1.63;0.45;;;;;;;;;;6163909;23;20021;-78
2024/01/24 10:21:03;;;;;;;0.52;0.40;;;;;;;;;;6169358;23;20018;-79
2024/01/24 10:23:52;;;;;;;1.33;0.75;;;;;;;;;;6169875;23;20017;-80
2024/01/24 10:26:40;;;;;;;2.50;1.13;;;;;;;;;;6165329;23;20022;-80
2024/01/24 10:29:30;;;;;;;0.52;0.30;;;;;;;;;;6149046;23;20018;-80
2024/01/24 10:32:18;;;;;;;0.63;0.38;;;;;;;;;;6149068;23;20018;-80
2024/01/24 10:35:04;;;;;;;2.10;0.30;;;;;;;;;;6170735;23;20025;-80
2024/01/24 10:37:56;;;;;;;1.88;0.50;;;;;;;;;;6171515;23;20025;-80
2024/01/24 10:40:42;;;;;;;2.63;0.65;;;;;;;;;;6170203;23;20021;-80
2024/01/24 10:43:32;;;;;;;1.02;0.20;;;;;;;;;;6169448;23;20017;-80
2024/01/24 10:46:20;;;;;;;1.05;0.25;;;;;;;;;;6167820;23;20025;-79
2024/01/24 10:49:06;;;;;;;2.65;0.50;;;;;;;;;;6170908;23;20030;-80
2024/01/24 10:51:55;;;;;;;5.15;0.82;;;;;;;;;;6170101;23;20446;-80
2024/01/24 10:54:42;;;;;;;2.50;0.40;;;;;;;;;;6170218;23;20017;-80
2024/01/24 10:57:29;;;;;;;0.88;0.43;;;;;;;;;;6150078;23;20021;-80
2024/01/24 11:00:22;;;;;;;1.80;0.40;;;;;;;;;;6170097;23;20021;-81
2024/01/24 11:03:12;;;;;;;1.98;0.35;;;;;;;;;;6170043;23;20336;-81
2024/01/24 11:06:05;;;;;;;2.17;0.40;;;;;;;;;;6167091;23;20022;-80
2024/01/24 11:08:56;;;;;;;4.40;0.60;;;;;;;;;;6148456;23;20014;-80
2024/01/24 11:11:43;;;;;;;2.72;0.32;;;;;;;;;;6149266;23;20017;-80
2024/01/24 11:14:30;;;;;;;0.55;0.55;;;;;;;;;;6163643;23;20032;-81
2024/01/24 11:17:19;;;;;;;;;;;;;;;;;;6169866;23;20018;-80
2024/01/24 11:20:09;;;;;;;2.17;0.30;;;;;;;;;;6173752;23;19922;-80
2024/01/24 11:23:00;;;;;;;1.00;0.40;;;;;;;;;;6150822;23;20021;-80
2024/01/24 11:25:48;;;;;;;0.85;0.20;;;;;;;;;;6140870;23;20026;-80
2024/01/24 11:28:36;;;;;;;2.63;0.40;;;;;;;;;;6172059;23;20021;-80
2024/01/24 11:31:38;;;;;;;1.35;0.30;;;;;;;;;;6151167;23;20018;-80
2024/01/24 11:34:27;;;;;;;2.80;0.57;;;;;;;;;;6173063;23;20018;-80
2024/01/24 11:37:17;;;;;;;0.55;0.30;;;;;;;;;;6167026;23;20021;-80
2024/01/24 11:40:07;;;;;;;1.55;0.40;;;;;;;;;;6175712;23;20026;-80
2024/01/24 11:42:56;;;;;;;0.70;0.30;;;;;;;;;;6153637;23;20017;-80
2024/01/24 11:45:43;;;;;;;0.52;0.30;;;;;;;;;;6173075;23;20022;-79
2024/01/24 11:48:31;;;;;;;0.95;0.40;;;;;;;;;;6173446;23;20021;-80
2024/01/24 11:51:22;;;;;;;1.75;0.75;;;;;;;;;;6175763;23;20021;-80
2024/01/24 11:54:09;;;;;;;1.00;0.30;;;;;;;;;;6164696;23;20017;-78
2024/01/24 11:56:55;;;;;;;4.40;0.50;;;;;;;;;;6143027;23;20331;-78
2024/01/24 11:59:43;;;;;;;3.20;0.50;;;;;;;;;;6165559;23;20017;-79
2024/01/24 12:02:31;;;;;;;5.53;0.65;;;;;;;;;;6152697;23;20018;-80
2024/01/24 12:05:21;;;;;;;1.38;0.43;;;;;;;;;;6175440;23;20025;-79
2024/01/24 12:08:09;;;;;;;1.38;0.40;;;;;;;;;;6173153;23;20017;-79
2024/01/24 12:10:59;;;;;;;2.63;0.40;;;;;;;;;;6173818;23;20018;-79
2024/01/24 12:13:45;;;;;;;1.88;0.52;;;;;;;;;;6172608;23;20026;-79
2024/01/24 12:16:31;;;;;;;2.20;0.47;;;;;;;;;;6173424;23;20017;-79
2024/01/24 12:19:20;;;;;;;3.55;0.60;;;;;;;;;;6177104;23;20021;-79
2024/01/24 12:22:08;;;;;;;2.28;0.50;;;;;;;;;;6155632;23;20029;-80
2024/01/24 12:25:00;;;;;;;4.35;0.95;;;;;;;;;;6180231;23;20017;-80
2024/01/24 12:27:50;;;;;;;2.95;0.90;;;;;;;;;;6156508;23;20018;-78
2024/01/24 12:30:38;;;;;;;2.63;0.60;;;;;;;;;;6164168;23;20021;-78
2024/01/24 12:33:24;;;;;;;3.42;0.82;;;;;;;;;;6162924;23;20034;-78
2024/01/24 12:36:16;;;;;;;4.43;1.40;;;;;;;;;;6161217;23;20022;-78
2024/01/24 12:39:07;;;;;;;4.43;1.10;;;;;;;;;;6164970;23;20021;-78
2024/01/24 12:41:55;;;;;;;3.85;1.40;;;;;;;;;;6164486;23;20355;-78
2024/01/24 12:44:42;;;;;;;2.63;0.80;;;;;;;;;;6164661;23;20021;-78
2024/01/24 12:47:28;;;;;;;4.25;1.13;;;;;;;;;;6156615;23;20018;-78
2024/01/24 12:50:14;;;;;;;3.00;0.95;;;;;;;;;;6164053;23;20022;-78
2024/01/24 12:53:03;;;;;;;3.67;0.77;;;;;;;;;;6163306;23;20327;-78
2024/01/24 12:55:51;;;;;;;3.28;0.70;;;;;;;;;;6163016;23;20021;-78
2024/01/24 12:58:39;;;;;;;2.70;0.90;;;;;;;;;;6164351;23;20022;-78
2024/01/24 13:01:27;;;;;;;6.70;1.17;;;;;;;;;;6163436;23;20025;-78
2024/01/24 13:04:13;;;;;;;2.83;1.13;;;;;;;;;;6162864;23;20047;-78
2024/01/24 13:07:01;;;;;;;5.80;1.70;;;;;;;;;;6168509;23;20017;-79
2024/01/24 13:09:47;;;;;;;3.40;0.93;;;;;;;;;;6176531;23;20017;-80
2024/01/24 13:12:39;;;;;;;4.88;0.80;;;;;;;;;;6155627;23;20445;-80
2024/01/24 13:15:32;;;;;;;4.10;0.63;;;;;;;;;;6175369;23;20022;-80
2024/01/24 13:18:19;;;;;;;7.22;1.10;;;;;;;;;;6154514;23;20018;-80
2024/01/24 13:21:05;;;;;;;5.85;1.13;;;;;;;;;;6175177;23;20021;-80
2024/01/24 13:23:51;;;;;;;7.97;1.52;;;;;;;;;;6155804;23;20014;-80
2024/01/24 13:26:40;;;;;;;6.22;1.35;;;;;;;;;;6171290;23;20018;-80
2024/01/24 13:29:31;;;;;;;4.78;1.10;;;;;;;;;;6154389;23;20486;-80
2024/01/24 13:32:19;;;;;;;8.02;1.48;;;;;;;;;;6177008;23;20022;-80
2024/01/24 13:35:07;;;;;;;8.90;1.10;;;;;;;;;;6176287;23;20029;-80
2024/01/24 13:37:53;;;;;;;6.18;1.55;;;;;;;;;;6177498;23;20014;-80
2024/01/24 13:40:39;;;;;;;7.47;1.85;;;;;;;;;;6163406;23;20018;-77
2024/01/24 13:43:27;;;;;;;7.05;1.35;;;;;;;;;;6162992;23;20025;-77
2024/01/24 13:46:16;;;;;;;3.22;0.90;;;;;;;;;;6160886;23;20025;-77
2024/01/24 13:49:04;;;;;;;9.25;1.48;;;;;;;;;;6162725;23;20021;-78
2024/01/24 13:51:56;;;;;;;5.65;1.33;;;;;;;;;;6164185;23;20025;-78
2024/01/24 13:54:42;;;;;;;6.82;1.45;;;;;;;;;;6162842;23;20018;-78
2024/01/24 13:57:33;;;;;;;7.78;1.40;;;;;;;;;;6162635;23;20017;-77
2024/01/24 14:00:21;;;;;;;8.10;1.75;;;;;;;;;;6163998;23;20017;-77
2024/01/24 14:03:12;;;;;;;11.10;1.55;;;;;;;;;;6162566;23;20466;-77
2024/01/24 14:05:58;;;;;;;8.00;2.63;;;;;;;;;;6169561;23;20035;-79
2024/01/24 14:08:48;;;;;;;5.53;1.27;;;;;;;;;;6172617;23;20446;-79
2024/01/24 14:11:34;;;;;;;9.85;1.60;;;;;;;;;;6172358;23;20021;-80
2024/01/24 14:14:20;;;;;;;10.10;1.88;;;;;;;;;;6172027;23;20018;-80
2024/01/24 14:17:06;;;;;;;9.63;2.08;;;;;;;;;;6167212;23;20033;-79
2024/01/24 14:19:54;;;;;;;11.23;2.35;;;;;;;;;;6149270;23;20022;-79
2024/01/24 14:22:42;;;;;;;10.80;2.33;;;;;;;;;;6163720;23;20031;-79
2024/01/24 14:25:32;;;;;;;6.65;1.42;;;;;;;;;;6143049;23;20028;-79
2024/01/24 14:28:20;;;;;;;10.63;2.03;;;;;;;;;;6164875;23;20025;-79
2024/01/24 14:31:09;;;;;;;9.75;1.92;;;;;;;;;;6164367;23;20032;-79
2024/01/24 14:33:54;;;;;;;12.88;2.33;;;;;;;;;;6163699;23;20013;-79
2024/01/24 14:36:43;;;;;;;9.65;2.35;;;;;;;;;;6160039;23;20028;-79
2024/01/24 14:39:29;;;;;;;7.85;1.20;;;;;;;;;;6167183;23;20025;-79
2024/01/24 14:42:18;;;;;;;11.50;2.00;;;;;;;;;;6168139;23;20022;-79
2024/01/24 14:45:07;;;;;;;8.85;1.83;;;;;;;;;;6146781;23;20020;-79
2024/01/24 14:47:53;;;;;;;7.13;1.70;;;;;;;;;;6167717;23;20025;-79
2024/01/24 14:50:39;;;;;;;7.90;1.52;;;;;;;;;;6169462;23;20022;-79
2024/01/24 14:53:27;;;;;;;8.80;2.22;;;;;;;;;;6167574;23;20022;-79
2024/01/24 14:56:15;;;;;;;;;;;;;;;;;;6164329;23;20025;-79
2024/01/24 14:59:05;;;;;;;;;;;;;;;;;;6168023;23;19923;-79
2024/01/24 15:01:54;;;;;;;12.65;1.77;;;;;;;;;;6167361;23;19944;-79
2024/01/24 15:04:45;;;;;;;12.90;2.25;;;;;;;;;;6168735;23;20027;-79
2024/01/24 15:07:30;;;;;;;10.90;1.67;;;;;;;;;;6167333;23;20032;-79
2024/01/24 15:10:16;;;;;;;6.95;1.58;;;;;;;;;;6149016;23;20027;-79
2024/01/24 15:13:05;;;;;;;7.90;1.85;;;;;;;;;;6169799;23;20018;-80
2024/01/24 15:15:52;;;;;;;13.35;1.80;;;;;;;;;;6130932;23;20018;-80
2024/01/24 15:18:41;;;;;;;10.20;2.20;;;;;;;;;;6150588;23;20032;-80
2024/01/24 15:21:30;;;;;;;11.10;1.92;;;;;;;;;;6172922;23;20035;-80
2024/01/24 15:24:16;;;;;;;10.65;1.50;;;;;;;;;;6129628;23;20024;-80
2024/01/24 15:27:02;;;;;;;7.82;1.55;;;;;;;;;;6144511;23;20028;-80
2024/01/24 15:29:51;;;;;;;4.93;1.60;;;;;;;;;;6172927;23;20025;-80
2024/01/24 15:32:40;;;;;;;8.73;1.60;;;;;;;;;;6150356;23;20021;-80
2024/01/24 15:35:26;;;;;;;14.25;1.83;;;;;;;;;;6172007;23;20018;-80
2024/01/24 15:38:14;;;;;;;7.53;1.27;;;;;;;;;;6150464;23;20028;-79
2024/01/24 15:41:03;;;;;;;7.20;1.67;;;;;;;;;;6172957;23;20021;-79
2024/01/24 15:43:50;;;;;;;11.82;2.45;;;;;;;;;;6172623;23;20450;-80
2024/01/24 15:46:35;;;;;;;9.18;2.00;;;;;;;;;;6133763;23;20028;-80
2024/01/24 15:49:25;;;;;;;7.80;1.73;;;;;;;;;;6159440;23;20018;-79
2024/01/24 15:52:11;;;;;;;10.13;1.55;;;;;;;;;;6154313;23;20030;-79
2024/01/24 15:55:00;;;;;;;8.05;1.50;;;;;;;;;;6130944;23;20035;-79
2024/01/24 15:57:46;;;;;;;17.55;2.13;;;;;;;;;;6150082;23;20021;-79
2024/01/24 16:00:31;;;;;;;6.28;1.58;;;;;;;;;;6173232;23;20353;-79
2024/01/24 16:03:19;;;;;;;10.35;1.70;;;;;;;;;;6129875;23;20018;-79
2024/01/24 16:06:07;;;;;;;9.48;1.60;;;;;;;;;;6146120;23;20044;-79
2024/01/24 16:08:53;;;;;;;12.20;2.17;;;;;;;;;;6152399;23;20332;-79
2024/01/24 16:11:39;;;;;;;7.18;1.63;;;;;;;;;;6172065;23;20061;-79
2024/01/24 16:14:26;;;;;;;8.88;1.95;;;;;;;;;;6161153;23;20014;-79
2024/01/24 16:17:12;;;;;;;9.35;2.13;;;;;;;;;;6169287;23;20022;-79
2024/01/24 16:20:00;;;;;;;4.57;1.83;;;;;;;;;;6143217;23;20031;-79
2024/01/24 16:22:47;;;;;;;13.57;1.83;;;;;;;;;;6124820;23;20018;-79
2024/01/24 16:25:36;;;;;;;9.52;1.73;;;;;;;;;;6141808;23;20468;-79
2024/01/24 16:28:21;;;;;;;12.68;2.40;;;;;;;;;;6168421;23;20025;-79
2024/01/24 16:31:10;;;;;;;9.88;2.60;;;;;;;;;;6144354;23;20044;-79
2024/01/24 16:33:58;;;;;;;13.23;2.58;;;;;;;;;;6142630;23;20462;-79
2024/01/24 16:36:46;;;;;;;16.65;2.45;;;;;;;;;;6164658;23;20676;-78
2024/01/24 16:39:33;;;;;;;8.07;2.10;;;;;;;;;;6143401;23;20028;-79
2024/01/24 16:42:19;;;;;;;8.05;1.38;;;;;;;;;;6120675;23;20239;-79
2024/01/24 16:45:06;;;;;;;7.35;1.27;;;;;;;;;;6163286;23;20418;-79
2024/01/24 16:47:52;;;;;;;7.88;2.10;;;;;;;;;;6124089;23;20021;-79
2024/01/24 16:50:38;;;;;;;6.50;1.65;;;;;;;;;;6144306;23;20335;-79